sensor_id;sensor_type;location;lat;lon;timestamp;P1;durP1;ratioP1;P2;durP2;ratioP2
28551;SDS011;15752;49.560;8.708;2022-08-01T00:00:09;2.00;;;1.80;;
28551;SDS011;15752;49.560;8.708;2022-08-01T00:02:40;1.83;;;1.60;;
28551;SDS011;15752;49.560;8.708;2022-08-01T00:05:09;2.50;;;1.50;;
28551;SDS011;15752;49.560;8.708;2022-08-01T00:07:38;1.70;;;1.60;;
28551;SDS011;15752;49.560;8.708;2022-08-01T00:10:08;2.63;;;1.73;;
28551;SDS011;15752;49.560;8.708;2022-08-01T00:12:40;2.70;;;1.48;;
28551;SDS011;15752;49.560;8.708;2022-08-01T00:15:12;1.70;;;1.50;;
28551;SDS011;15752;49.560;8.708;2022-08-01T00:17:45;1.70;;;1.60;;
28551;SDS011;15752;49.560;8.708;2022-08-01T00:20:13;1.52;;;1.42;;
28551;SDS011;15752;49.560;8.708;2022-08-01T00:22:43;2.00;;;1.48;;
28551;SDS011;15752;49.560;8.708;2022-08-01T00:25:11;1.75;;;1.65;;
28551;SDS011;15752;49.560;8.708;2022-08-01T00:27:40;2.22;;;1.98;;
28551;SDS011;15752;49.560;8.708;2022-08-01T00:30:09;3.70;;;1.80;;
28551;SDS011;15752;49.560;8.708;2022-08-01T00:32:40;1.60;;;1.50;;
28551;SDS011;15752;49.560;8.708;2022-08-01T00:35:11;1.70;;;1.60;;
28551;SDS011;15752;49.560;8.708;2022-08-01T00:37:40;2.00;;;1.65;;
28551;SDS011;15752;49.560;8.708;2022-08-01T00:40:10;3.88;;;1.80;;
28551;SDS011;15752;49.560;8.708;2022-08-01T00:42:39;2.47;;;1.50;;
28551;SDS011;15752;49.560;8.708;2022-08-01T00:45:09;6.35;;;1.70;;
28551;SDS011;15752;49.560;8.708;2022-08-01T00:47:38;1.48;;;1.38;;
28551;SDS011;15752;49.560;8.708;2022-08-01T00:50:08;1.67;;;1.58;;
28551;SDS011;15752;49.560;8.708;2022-08-01T00:52:39;2.55;;;1.60;;
28551;SDS011;15752;49.560;8.708;2022-08-01T00:55:16;1.70;;;1.60;;
28551;SDS011;15752;49.560;8.708;2022-08-01T00:57:47;1.63;;;1.50;;
28551;SDS011;15752;49.560;8.708;2022-08-01T01:00:31;2.67;;;1.80;;
28551;SDS011;15752;49.560;8.708;2022-08-01T01:03:20;1.67;;;1.50;;
28551;SDS011;15752;49.560;8.708;2022-08-01T01:06:17;1.70;;;1.60;;
28551;SDS011;15752;49.560;8.708;2022-08-01T01:08:58;1.50;;;1.40;;
28551;SDS011;15752;49.560;8.708;2022-08-01T01:11:44;1.58;;;1.48;;
28551;SDS011;15752;49.560;8.708;2022-08-01T01:14:27;2.10;;;1.73;;
28551;SDS011;15752;49.560;8.708;2022-08-01T01:17:02;2.13;;;1.40;;
28551;SDS011;15752;49.560;8.708;2022-08-01T01:19:35;2.20;;;1.65;;
28551;SDS011;15752;49.560;8.708;2022-08-01T01:22:18;2.45;;;1.70;;
28551;SDS011;15752;49.560;8.708;2022-08-01T01:24:58;1.95;;;1.60;;
28551;SDS011;15752;49.560;8.708;2022-08-01T01:27:41;1.27;;;1.17;;
28551;SDS011;15752;49.560;8.708;2022-08-01T01:30:19;1.77;;;1.60;;
28551;SDS011;15752;49.560;8.708;2022-08-01T01:32:51;2.10;;;1.63;;
28551;SDS011;15752;49.560;8.708;2022-08-01T01:35:22;1.70;;;1.52;;
28551;SDS011;15752;49.560;8.708;2022-08-01T01:37:58;1.70;;;1.30;;
28551;SDS011;15752;49.560;8.708;2022-08-01T01:40:33;1.70;;;1.60;;
28551;SDS011;15752;49.560;8.708;2022-08-01T01:43:04;1.60;;;1.50;;
28551;SDS011;15752;49.560;8.708;2022-08-01T01:45:38;1.60;;;1.48;;
28551;SDS011;15752;49.560;8.708;2022-08-01T01:48:08;2.00;;;1.77;;
28551;SDS011;15752;49.560;8.708;2022-08-01T01:50:38;4.07;;;1.70;;
28551;SDS011;15752;49.560;8.708;2022-08-01T01:53:07;2.58;;;1.70;;
28551;SDS011;15752;49.560;8.708;2022-08-01T01:55:41;1.83;;;1.60;;
28551;SDS011;15752;49.560;8.708;2022-08-01T01:58:15;1.80;;;1.70;;
28551;SDS011;15752;49.560;8.708;2022-08-01T02:00:47;1.90;;;1.80;;
28551;SDS011;15752;49.560;8.708;2022-08-01T02:03:18;2.15;;;1.60;;
28551;SDS011;15752;49.560;8.708;2022-08-01T02:05:48;2.13;;;1.92;;
28551;SDS011;15752;49.560;8.708;2022-08-01T02:08:19;1.92;;;1.73;;
28551;SDS011;15752;49.560;8.708;2022-08-01T02:10:51;4.03;;;1.63;;
28551;SDS011;15752;49.560;8.708;2022-08-01T02:13:40;2.05;;;1.85;;
28551;SDS011;15752;49.560;8.708;2022-08-01T02:16:12;2.17;;;2.00;;
28551;SDS011;15752;49.560;8.708;2022-08-01T02:18:41;2.83;;;2.10;;
28551;SDS011;15752;49.560;8.708;2022-08-01T02:21:12;2.92;;;1.65;;
28551;SDS011;15752;49.560;8.708;2022-08-01T02:23:44;2.28;;;1.70;;
28551;SDS011;15752;49.560;8.708;2022-08-01T02:26:14;2.03;;;1.88;;
28551;SDS011;15752;49.560;8.708;2022-08-01T02:28:47;1.77;;;1.65;;
28551;SDS011;15752;49.560;8.708;2022-08-01T02:31:20;1.95;;;1.75;;
28551;SDS011;15752;49.560;8.708;2022-08-01T02:33:52;2.15;;;1.38;;
28551;SDS011;15752;49.560;8.708;2022-08-01T02:36:26;1.73;;;1.60;;
28551;SDS011;15752;49.560;8.708;2022-08-01T02:38:59;1.40;;;1.30;;
28551;SDS011;15752;49.560;8.708;2022-08-01T02:41:31;2.17;;;1.60;;
28551;SDS011;15752;49.560;8.708;2022-08-01T02:44:05;2.15;;;1.60;;
28551;SDS011;15752;49.560;8.708;2022-08-01T02:46:40;1.33;;;1.23;;
28551;SDS011;15752;49.560;8.708;2022-08-01T02:49:19;2.40;;;1.23;;
28551;SDS011;15752;49.560;8.708;2022-08-01T02:51:49;1.50;;;1.40;;
28551;SDS011;15752;49.560;8.708;2022-08-01T02:54:19;1.40;;;1.30;;
28551;SDS011;15752;49.560;8.708;2022-08-01T02:56:51;1.45;;;1.35;;
28551;SDS011;15752;49.560;8.708;2022-08-01T02:59:23;1.70;;;1.60;;
28551;SDS011;15752;49.560;8.708;2022-08-01T03:01:56;1.60;;;1.50;;
28551;SDS011;15752;49.560;8.708;2022-08-01T03:04:28;1.50;;;1.40;;
28551;SDS011;15752;49.560;8.708;2022-08-01T03:06:57;1.60;;;1.50;;
28551;SDS011;15752;49.560;8.708;2022-08-01T03:09:30;1.92;;;1.50;;
28551;SDS011;15752;49.560;8.708;2022-08-01T03:12:04;1.52;;;1.30;;
28551;SDS011;15752;49.560;8.708;2022-08-01T03:14:38;1.92;;;1.75;;
28551;SDS011;15752;49.560;8.708;2022-08-01T03:17:11;1.50;;;1.40;;
28551;SDS011;15752;49.560;8.708;2022-08-01T03:19:41;2.03;;;1.52;;
28551;SDS011;15752;49.560;8.708;2022-08-01T03:22:11;1.75;;;1.65;;
28551;SDS011;15752;49.560;8.708;2022-08-01T03:24:42;1.60;;;1.50;;
28551;SDS011;15752;49.560;8.708;2022-08-01T03:27:16;2.03;;;1.65;;
28551;SDS011;15752;49.560;8.708;2022-08-01T03:29:47;1.40;;;1.30;;
28551;SDS011;15752;49.560;8.708;2022-08-01T03:32:19;2.05;;;1.80;;
28551;SDS011;15752;49.560;8.708;2022-08-01T03:34:48;1.85;;;1.65;;
28551;SDS011;15752;49.560;8.708;2022-08-01T03:37:19;2.00;;;1.83;;
28551;SDS011;15752;49.560;8.708;2022-08-01T03:39:54;2.72;;;1.77;;
28551;SDS011;15752;49.560;8.708;2022-08-01T03:42:27;1.70;;;1.60;;
28551;SDS011;15752;49.560;8.708;2022-08-01T03:45:02;1.63;;;1.52;;
28551;SDS011;15752;49.560;8.708;2022-08-01T03:47:41;1.95;;;1.63;;
28551;SDS011;15752;49.560;8.708;2022-08-01T03:50:13;1.65;;;1.50;;
28551;SDS011;15752;49.560;8.708;2022-08-01T03:52:44;2.28;;;1.55;;
28551;SDS011;15752;49.560;8.708;2022-08-01T03:55:15;1.98;;;1.70;;
28551;SDS011;15752;49.560;8.708;2022-08-01T03:57:45;1.75;;;1.55;;
28551;SDS011;15752;49.560;8.708;2022-08-01T04:00:15;1.30;;;1.20;;
28551;SDS011;15752;49.560;8.708;2022-08-01T04:02:46;1.52;;;1.42;;
28551;SDS011;15752;49.560;8.708;2022-08-01T04:05:16;2.03;;;1.77;;
28551;SDS011;15752;49.560;8.708;2022-08-01T04:07:46;2.13;;;1.70;;
28551;SDS011;15752;49.560;8.708;2022-08-01T04:10:22;2.50;;;1.90;;
28551;SDS011;15752;49.560;8.708;2022-08-01T04:12:51;2.80;;;1.98;;
28551;SDS011;15752;49.560;8.708;2022-08-01T04:15:20;2.42;;;1.65;;
28551;SDS011;15752;49.560;8.708;2022-08-01T04:17:50;2.40;;;2.20;;
28551;SDS011;15752;49.560;8.708;2022-08-01T04:20:20;2.83;;;1.77;;
28551;SDS011;15752;49.560;8.708;2022-08-01T04:22:50;2.40;;;1.70;;
28551;SDS011;15752;49.560;8.708;2022-08-01T04:25:19;1.52;;;1.40;;
28551;SDS011;15752;49.560;8.708;2022-08-01T04:27:54;2.30;;;1.77;;
28551;SDS011;15752;49.560;8.708;2022-08-01T04:30:25;1.77;;;1.50;;
28551;SDS011;15752;49.560;8.708;2022-08-01T04:32:59;2.35;;;1.92;;
28551;SDS011;15752;49.560;8.708;2022-08-01T04:35:29;2.28;;;1.75;;
28551;SDS011;15752;49.560;8.708;2022-08-01T04:38:21;1.90;;;1.50;;
28551;SDS011;15752;49.560;8.708;2022-08-01T04:40:54;1.80;;;1.70;;
28551;SDS011;15752;49.560;8.708;2022-08-01T04:43:29;1.85;;;1.70;;
28551;SDS011;15752;49.560;8.708;2022-08-01T04:45:58;2.40;;;1.80;;
28551;SDS011;15752;49.560;8.708;2022-08-01T04:48:32;3.28;;;1.52;;
28551;SDS011;15752;49.560;8.708;2022-08-01T04:51:02;2.08;;;1.45;;
28551;SDS011;15752;49.560;8.708;2022-08-01T04:53:31;1.67;;;1.58;;
28551;SDS011;15752;49.560;8.708;2022-08-01T04:56:00;3.83;;;1.63;;
28551;SDS011;15752;49.560;8.708;2022-08-01T04:58:29;1.95;;;1.67;;
28551;SDS011;15752;49.560;8.708;2022-08-01T05:00:58;1.95;;;1.60;;
28551;SDS011;15752;49.560;8.708;2022-08-01T05:03:26;2.17;;;1.67;;
28551;SDS011;15752;49.560;8.708;2022-08-01T05:05:57;1.60;;;1.30;;
28551;SDS011;15752;49.560;8.708;2022-08-01T05:08:25;1.92;;;1.55;;
28551;SDS011;15752;49.560;8.708;2022-08-01T05:10:54;1.48;;;1.33;;
28551;SDS011;15752;49.560;8.708;2022-08-01T05:13:23;2.15;;;1.70;;
28551;SDS011;15752;49.560;8.708;2022-08-01T05:15:52;1.50;;;1.40;;
28551;SDS011;15752;49.560;8.708;2022-08-01T05:18:20;3.22;;;1.90;;
28551;SDS011;15752;49.560;8.708;2022-08-01T05:20:53;4.22;;;1.75;;
28551;SDS011;15752;49.560;8.708;2022-08-01T05:23:24;2.25;;;1.60;;
28551;SDS011;15752;49.560;8.708;2022-08-01T05:26:08;1.60;;;1.50;;
28551;SDS011;15752;49.560;8.708;2022-08-01T05:28:41;3.10;;;1.40;;
28551;SDS011;15752;49.560;8.708;2022-08-01T05:31:10;1.98;;;1.85;;
28551;SDS011;15752;49.560;8.708;2022-08-01T05:33:39;1.63;;;1.52;;
28551;SDS011;15752;49.560;8.708;2022-08-01T05:36:07;2.00;;;1.52;;
28551;SDS011;15752;49.560;8.708;2022-08-01T05:38:37;1.73;;;1.45;;
28551;SDS011;15752;49.560;8.708;2022-08-01T05:41:06;6.63;;;1.80;;
28551;SDS011;15752;49.560;8.708;2022-08-01T05:43:35;5.47;;;1.75;;
28551;SDS011;15752;49.560;8.708;2022-08-01T05:46:04;1.50;;;1.35;;
28551;SDS011;15752;49.560;8.708;2022-08-01T05:48:32;1.48;;;1.38;;
28551;SDS011;15752;49.560;8.708;2022-08-01T05:51:01;3.65;;;1.60;;
28551;SDS011;15752;49.560;8.708;2022-08-01T05:53:30;1.90;;;1.55;;
28551;SDS011;15752;49.560;8.708;2022-08-01T05:56:02;2.67;;;1.63;;
28551;SDS011;15752;49.560;8.708;2022-08-01T05:58:31;3.35;;;1.63;;
28551;SDS011;15752;49.560;8.708;2022-08-01T06:01:00;2.40;;;1.55;;
28551;SDS011;15752;49.560;8.708;2022-08-01T06:03:29;1.55;;;1.45;;
28551;SDS011;15752;49.560;8.708;2022-08-01T06:05:59;2.47;;;1.30;;
28551;SDS011;15752;49.560;8.708;2022-08-01T06:08:28;2.65;;;1.30;;
28551;SDS011;15752;49.560;8.708;2022-08-01T06:10:57;1.70;;;1.25;;
28551;SDS011;15752;49.560;8.708;2022-08-01T06:13:28;1.02;;;0.93;;
28551;SDS011;15752;49.560;8.708;2022-08-01T06:15:57;0.88;;;0.82;;
28551;SDS011;15752;49.560;8.708;2022-08-01T06:18:26;0.80;;;0.80;;
28551;SDS011;15752;49.560;8.708;2022-08-01T06:20:54;1.80;;;0.90;;
28551;SDS011;15752;49.560;8.708;2022-08-01T06:23:23;1.92;;;1.40;;
28551;SDS011;15752;49.560;8.708;2022-08-01T06:25:58;1.25;;;0.80;;
28551;SDS011;15752;49.560;8.708;2022-08-01T06:28:28;1.20;;;1.08;;
28551;SDS011;15752;49.560;8.708;2022-08-01T06:30:57;2.25;;;1.27;;
28551;SDS011;15752;49.560;8.708;2022-08-01T06:33:26;1.35;;;1.00;;
28551;SDS011;15752;49.560;8.708;2022-08-01T06:35:55;1.17;;;1.08;;
28551;SDS011;15752;49.560;8.708;2022-08-01T06:38:24;1.10;;;1.10;;
28551;SDS011;15752;49.560;8.708;2022-08-01T06:40:53;2.33;;;1.10;;
28551;SDS011;15752;49.560;8.708;2022-08-01T06:43:22;1.15;;;0.90;;
28551;SDS011;15752;49.560;8.708;2022-08-01T06:45:52;2.95;;;1.33;;
28551;SDS011;15752;49.560;8.708;2022-08-01T06:48:21;2.25;;;1.08;;
28551;SDS011;15752;49.560;8.708;2022-08-01T06:50:50;2.83;;;1.10;;
28551;SDS011;15752;49.560;8.708;2022-08-01T06:53:35;0.98;;;0.88;;
28551;SDS011;15752;49.560;8.708;2022-08-01T06:56:04;2.78;;;1.35;;
28551;SDS011;15752;49.560;8.708;2022-08-01T06:58:35;3.72;;;0.90;;
28551;SDS011;15752;49.560;8.708;2022-08-01T07:01:05;3.53;;;1.20;;
28551;SDS011;15752;49.560;8.708;2022-08-01T07:03:35;1.42;;;0.90;;
28551;SDS011;15752;49.560;8.708;2022-08-01T07:06:20;1.27;;;1.10;;
28551;SDS011;15752;49.560;8.708;2022-08-01T07:08:51;1.38;;;0.90;;
28551;SDS011;15752;49.560;8.708;2022-08-01T07:11:20;1.58;;;1.15;;
28551;SDS011;15752;49.560;8.708;2022-08-01T07:13:50;1.77;;;1.17;;
28551;SDS011;15752;49.560;8.708;2022-08-01T07:16:21;2.88;;;1.27;;
28551;SDS011;15752;49.560;8.708;2022-08-01T07:18:49;4.07;;;1.40;;
28551;SDS011;15752;49.560;8.708;2022-08-01T07:21:18;1.60;;;1.10;;
28551;SDS011;15752;49.560;8.708;2022-08-01T07:24:06;1.33;;;1.10;;
28551;SDS011;15752;49.560;8.708;2022-08-01T07:26:40;2.92;;;1.00;;
28551;SDS011;15752;49.560;8.708;2022-08-01T07:29:20;2.75;;;1.08;;
28551;SDS011;15752;49.560;8.708;2022-08-01T07:31:52;3.22;;;1.20;;
28551;SDS011;15752;49.560;8.708;2022-08-01T07:34:22;1.63;;;1.25;;
28551;SDS011;15752;49.560;8.708;2022-08-01T07:36:52;1.92;;;1.00;;
28551;SDS011;15752;49.560;8.708;2022-08-01T07:39:21;2.08;;;1.38;;
28551;SDS011;15752;49.560;8.708;2022-08-01T07:41:50;2.00;;;1.27;;
28551;SDS011;15752;49.560;8.708;2022-08-01T07:44:33;3.65;;;1.00;;
28551;SDS011;15752;49.560;8.708;2022-08-01T07:47:04;3.55;;;1.52;;
28551;SDS011;15752;49.560;8.708;2022-08-01T07:49:33;1.20;;;0.90;;
28551;SDS011;15752;49.560;8.708;2022-08-01T07:52:06;1.83;;;1.20;;
28551;SDS011;15752;49.560;8.708;2022-08-01T07:54:35;1.85;;;1.00;;
28551;SDS011;15752;49.560;8.708;2022-08-01T07:57:04;1.52;;;1.00;;
28551;SDS011;15752;49.560;8.708;2022-08-01T07:59:33;1.42;;;1.10;;
28551;SDS011;15752;49.560;8.708;2022-08-01T08:02:04;1.88;;;1.27;;
28551;SDS011;15752;49.560;8.708;2022-08-01T08:04:33;1.73;;;1.17;;
28551;SDS011;15752;49.560;8.708;2022-08-01T08:07:02;2.38;;;0.90;;
28551;SDS011;15752;49.560;8.708;2022-08-01T08:09:31;1.98;;;1.08;;
28551;SDS011;15752;49.560;8.708;2022-08-01T08:12:04;2.92;;;1.25;;
28551;SDS011;15752;49.560;8.708;2022-08-01T08:14:34;3.45;;;1.13;;
28551;SDS011;15752;49.560;8.708;2022-08-01T08:17:05;1.80;;;0.85;;
28551;SDS011;15752;49.560;8.708;2022-08-01T08:19:34;0.93;;;0.90;;
28551;SDS011;15752;49.560;8.708;2022-08-01T08:22:05;1.00;;;0.90;;
28551;SDS011;15752;49.560;8.708;2022-08-01T08:24:36;1.17;;;0.88;;
28551;SDS011;15752;49.560;8.708;2022-08-01T08:27:12;1.23;;;1.02;;
28551;SDS011;15752;49.560;8.708;2022-08-01T08:29:41;0.70;;;0.70;;
28551;SDS011;15752;49.560;8.708;2022-08-01T08:32:12;1.15;;;0.90;;
28551;SDS011;15752;49.560;8.708;2022-08-01T08:34:40;0.70;;;0.70;;
28551;SDS011;15752;49.560;8.708;2022-08-01T08:37:10;1.65;;;1.00;;
28551;SDS011;15752;49.560;8.708;2022-08-01T08:39:39;0.82;;;0.80;;
28551;SDS011;15752;49.560;8.708;2022-08-01T08:42:08;0.93;;;0.80;;
28551;SDS011;15752;49.560;8.708;2022-08-01T08:44:39;0.93;;;0.80;;
28551;SDS011;15752;49.560;8.708;2022-08-01T08:47:14;1.23;;;1.10;;
28551;SDS011;15752;49.560;8.708;2022-08-01T08:49:46;1.50;;;0.70;;
28551;SDS011;15752;49.560;8.708;2022-08-01T08:52:17;1.60;;;0.95;;
28551;SDS011;15752;49.560;8.708;2022-08-01T08:54:48;1.80;;;1.05;;
28551;SDS011;15752;49.560;8.708;2022-08-01T08:57:19;1.05;;;0.90;;
28551;SDS011;15752;49.560;8.708;2022-08-01T08:59:49;1.60;;;0.80;;
28551;SDS011;15752;49.560;8.708;2022-08-01T09:02:22;0.88;;;0.85;;
28551;SDS011;15752;49.560;8.708;2022-08-01T09:04:51;1.33;;;1.00;;
28551;SDS011;15752;49.560;8.708;2022-08-01T09:07:20;1.02;;;0.93;;
28551;SDS011;15752;49.560;8.708;2022-08-01T09:09:49;1.40;;;0.90;;
28551;SDS011;15752;49.560;8.708;2022-08-01T09:12:19;0.88;;;0.88;;
28551;SDS011;15752;49.560;8.708;2022-08-01T09:14:48;1.60;;;1.00;;
28551;SDS011;15752;49.560;8.708;2022-08-01T09:17:20;0.77;;;0.77;;
28551;SDS011;15752;49.560;8.708;2022-08-01T09:19:51;0.98;;;0.90;;
28551;SDS011;15752;49.560;8.708;2022-08-01T09:22:24;1.30;;;0.77;;
28551;SDS011;15752;49.560;8.708;2022-08-01T09:24:57;2.35;;;1.02;;
28551;SDS011;15752;49.560;8.708;2022-08-01T09:27:28;2.60;;;0.90;;
28551;SDS011;15752;49.560;8.708;2022-08-01T09:30:07;0.90;;;0.80;;
28551;SDS011;15752;49.560;8.708;2022-08-01T09:32:54;1.25;;;1.15;;
28551;SDS011;15752;49.560;8.708;2022-08-01T09:35:25;1.13;;;0.93;;
28551;SDS011;15752;49.560;8.708;2022-08-01T09:38:11;1.75;;;0.80;;
28551;SDS011;15752;49.560;8.708;2022-08-01T09:40:43;1.42;;;0.90;;
28551;SDS011;15752;49.560;8.708;2022-08-01T09:43:17;3.53;;;1.00;;
28551;SDS011;15752;49.560;8.708;2022-08-01T09:45:46;1.20;;;0.90;;
28551;SDS011;15752;49.560;8.708;2022-08-01T09:48:20;0.80;;;0.80;;
28551;SDS011;15752;49.560;8.708;2022-08-01T09:50:55;2.75;;;0.90;;
28551;SDS011;15752;49.560;8.708;2022-08-01T09:53:41;1.58;;;0.90;;
28551;SDS011;15752;49.560;8.708;2022-08-01T09:56:19;1.27;;;1.00;;
28551;SDS011;15752;49.560;8.708;2022-08-01T09:58:49;0.90;;;0.90;;
28551;SDS011;15752;49.560;8.708;2022-08-01T10:01:25;4.38;;;1.00;;
28551;SDS011;15752;49.560;8.708;2022-08-01T10:04:08;1.20;;;0.90;;
28551;SDS011;15752;49.560;8.708;2022-08-01T10:06:41;1.88;;;1.08;;
28551;SDS011;15752;49.560;8.708;2022-08-01T10:09:12;1.02;;;1.00;;
28551;SDS011;15752;49.560;8.708;2022-08-01T10:11:42;2.00;;;0.80;;
28551;SDS011;15752;49.560;8.708;2022-08-01T10:14:11;2.45;;;1.00;;
28551;SDS011;15752;49.560;8.708;2022-08-01T10:16:43;2.15;;;0.85;;
28551;SDS011;15752;49.560;8.708;2022-08-01T10:19:32;1.25;;;1.00;;
28551;SDS011;15752;49.560;8.708;2022-08-01T10:22:04;0.80;;;0.80;;
28551;SDS011;15752;49.560;8.708;2022-08-01T10:24:37;1.60;;;1.10;;
28551;SDS011;15752;49.560;8.708;2022-08-01T10:27:07;2.25;;;1.20;;
28551;SDS011;15752;49.560;8.708;2022-08-01T10:29:40;1.08;;;0.85;;
28551;SDS011;15752;49.560;8.708;2022-08-01T10:32:34;1.85;;;1.00;;
28551;SDS011;15752;49.560;8.708;2022-08-01T10:35:07;0.82;;;0.82;;
28551;SDS011;15752;49.560;8.708;2022-08-01T10:37:41;0.88;;;0.85;;
28551;SDS011;15752;49.560;8.708;2022-08-01T10:40:18;1.70;;;0.98;;
28551;SDS011;15752;49.560;8.708;2022-08-01T10:42:57;1.17;;;1.00;;
28551;SDS011;15752;49.560;8.708;2022-08-01T10:45:27;1.20;;;0.93;;
28551;SDS011;15752;49.560;8.708;2022-08-01T10:47:59;1.70;;;0.95;;
28551;SDS011;15752;49.560;8.708;2022-08-01T10:50:39;0.80;;;0.80;;
28551;SDS011;15752;49.560;8.708;2022-08-01T10:53:15;1.30;;;0.90;;
28551;SDS011;15752;49.560;8.708;2022-08-01T10:55:59;2.28;;;1.00;;
28551;SDS011;15752;49.560;8.708;2022-08-01T10:58:32;1.02;;;0.85;;
28551;SDS011;15752;49.560;8.708;2022-08-01T11:01:16;0.82;;;0.82;;
28551;SDS011;15752;49.560;8.708;2022-08-01T11:03:57;0.80;;;0.80;;
28551;SDS011;15752;49.560;8.708;2022-08-01T11:06:50;0.70;;;0.70;;
28551;SDS011;15752;49.560;8.708;2022-08-01T11:09:37;1.10;;;0.77;;
28551;SDS011;15752;49.560;8.708;2022-08-01T11:12:16;0.90;;;0.90;;
28551;SDS011;15752;49.560;8.708;2022-08-01T11:17:57;2.65;;;1.55;;
28551;SDS011;15752;49.560;8.708;2022-08-01T11:20:28;0.82;;;0.82;;
28551;SDS011;15752;49.560;8.708;2022-08-01T11:23:18;3.80;;;1.02;;
28551;SDS011;15752;49.560;8.708;2022-08-01T11:26:06;1.70;;;0.80;;
28551;SDS011;15752;49.560;8.708;2022-08-01T11:28:44;0.60;;;0.60;;
28551;SDS011;15752;49.560;8.708;2022-08-01T11:31:47;0.80;;;0.80;;
28551;SDS011;15752;49.560;8.708;2022-08-01T11:34:17;0.90;;;0.80;;
28551;SDS011;15752;49.560;8.708;2022-08-01T11:36:47;1.20;;;0.80;;
28551;SDS011;15752;49.560;8.708;2022-08-01T11:39:36;0.80;;;0.70;;
28551;SDS011;15752;49.560;8.708;2022-08-01T11:42:17;0.60;;;0.60;;
28551;SDS011;15752;49.560;8.708;2022-08-01T11:44:48;0.50;;;0.50;;
28551;SDS011;15752;49.560;8.708;2022-08-01T11:47:17;0.80;;;0.80;;
28551;SDS011;15752;49.560;8.708;2022-08-01T11:50:34;0.90;;;0.90;;
28551;SDS011;15752;49.560;8.708;2022-08-01T11:53:05;1.00;;;0.77;;
28551;SDS011;15752;49.560;8.708;2022-08-01T11:55:39;0.93;;;0.80;;
28551;SDS011;15752;49.560;8.708;2022-08-01T11:58:20;0.90;;;0.90;;
28551;SDS011;15752;49.560;8.708;2022-08-01T12:00:58;0.80;;;0.80;;
28551;SDS011;15752;49.560;8.708;2022-08-01T12:03:29;0.73;;;0.73;;
28551;SDS011;15752;49.560;8.708;2022-08-01T12:06:00;0.77;;;0.77;;
28551;SDS011;15752;49.560;8.708;2022-08-01T12:08:31;0.98;;;0.90;;
28551;SDS011;15752;49.560;8.708;2022-08-01T12:11:04;0.98;;;0.88;;
28551;SDS011;15752;49.560;8.708;2022-08-01T12:13:40;0.90;;;0.90;;
28551;SDS011;15752;49.560;8.708;2022-08-01T12:16:11;0.77;;;0.77;;
28551;SDS011;15752;49.560;8.708;2022-08-01T12:18:40;1.02;;;0.90;;
28551;SDS011;15752;49.560;8.708;2022-08-01T12:21:11;1.17;;;1.00;;
28551;SDS011;15752;49.560;8.708;2022-08-01T12:23:40;1.08;;;0.90;;
28551;SDS011;15752;49.560;8.708;2022-08-01T12:26:11;1.42;;;1.00;;
28551;SDS011;15752;49.560;8.708;2022-08-01T12:28:57;1.13;;;0.80;;
28551;SDS011;15752;49.560;8.708;2022-08-01T12:31:33;0.77;;;0.73;;
28551;SDS011;15752;49.560;8.708;2022-08-01T12:36:56;1.45;;;0.63;;
28551;SDS011;15752;49.560;8.708;2022-08-01T12:39:30;1.02;;;1.00;;
28551;SDS011;15752;49.560;8.708;2022-08-01T12:42:07;2.00;;;0.90;;
28551;SDS011;15752;49.560;8.708;2022-08-01T12:44:37;1.05;;;0.95;;
28551;SDS011;15752;49.560;8.708;2022-08-01T12:47:07;0.80;;;0.80;;
28551;SDS011;15752;49.560;8.708;2022-08-01T12:49:37;1.00;;;0.80;;
28551;SDS011;15752;49.560;8.708;2022-08-01T12:52:07;1.65;;;1.27;;
28551;SDS011;15752;49.560;8.708;2022-08-01T12:58:04;1.48;;;1.02;;
28551;SDS011;15752;49.560;8.708;2022-08-01T13:00:42;1.17;;;1.08;;
28551;SDS011;15752;49.560;8.708;2022-08-01T13:03:13;1.77;;;1.00;;
28551;SDS011;15752;49.560;8.708;2022-08-01T13:05:45;1.35;;;0.90;;
28551;SDS011;15752;49.560;8.708;2022-08-01T13:08:20;1.17;;;1.08;;
28551;SDS011;15752;49.560;8.708;2022-08-01T13:10:59;1.98;;;0.80;;
28551;SDS011;15752;49.560;8.708;2022-08-01T13:13:38;1.65;;;0.90;;
28551;SDS011;15752;49.560;8.708;2022-08-01T13:16:10;1.73;;;0.80;;
28551;SDS011;15752;49.560;8.708;2022-08-01T13:18:52;1.10;;;1.00;;
28551;SDS011;15752;49.560;8.708;2022-08-01T13:21:23;1.40;;;1.10;;
28551;SDS011;15752;49.560;8.708;2022-08-01T13:24:00;1.00;;;1.00;;
28551;SDS011;15752;49.560;8.708;2022-08-01T13:26:41;1.65;;;1.02;;
28551;SDS011;15752;49.560;8.708;2022-08-01T13:29:15;1.15;;;0.98;;
28551;SDS011;15752;49.560;8.708;2022-08-01T13:31:45;0.90;;;0.90;;
28551;SDS011;15752;49.560;8.708;2022-08-01T13:34:15;1.13;;;1.00;;
28551;SDS011;15752;49.560;8.708;2022-08-01T13:36:44;1.42;;;1.23;;
28551;SDS011;15752;49.560;8.708;2022-08-01T13:39:15;2.22;;;1.00;;
28551;SDS011;15752;49.560;8.708;2022-08-01T13:42:01;3.70;;;1.20;;
28551;SDS011;15752;49.560;8.708;2022-08-01T13:44:32;1.52;;;1.17;;
28551;SDS011;15752;49.560;8.708;2022-08-01T13:47:01;1.75;;;1.10;;
28551;SDS011;15752;49.560;8.708;2022-08-01T13:49:42;3.08;;;1.20;;
28551;SDS011;15752;49.560;8.708;2022-08-01T13:52:11;1.05;;;0.90;;
28551;SDS011;15752;49.560;8.708;2022-08-01T13:54:42;1.70;;;0.95;;
28551;SDS011;15752;49.560;8.708;2022-08-01T13:57:11;2.15;;;0.90;;
28551;SDS011;15752;49.560;8.708;2022-08-01T13:59:42;0.85;;;0.80;;
28551;SDS011;15752;49.560;8.708;2022-08-01T14:02:11;2.28;;;1.08;;
28551;SDS011;15752;49.560;8.708;2022-08-01T14:04:39;1.00;;;0.93;;
28551;SDS011;15752;49.560;8.708;2022-08-01T14:07:08;1.40;;;0.82;;
28551;SDS011;15752;49.560;8.708;2022-08-01T14:09:40;1.45;;;0.80;;
28551;SDS011;15752;49.560;8.708;2022-08-01T14:12:29;1.02;;;0.95;;
28551;SDS011;15752;49.560;8.708;2022-08-01T14:15:00;1.33;;;1.20;;
28551;SDS011;15752;49.560;8.708;2022-08-01T14:17:28;0.85;;;0.85;;
28551;SDS011;15752;49.560;8.708;2022-08-01T14:20:03;0.98;;;0.88;;
28551;SDS011;15752;49.560;8.708;2022-08-01T14:22:33;3.15;;;0.82;;
28551;SDS011;15752;49.560;8.708;2022-08-01T14:25:02;1.05;;;0.95;;
28551;SDS011;15752;49.560;8.708;2022-08-01T14:27:32;0.65;;;0.65;;
28551;SDS011;15752;49.560;8.708;2022-08-01T14:30:04;1.60;;;0.80;;
28551;SDS011;15752;49.560;8.708;2022-08-01T14:32:35;1.73;;;1.23;;
28551;SDS011;15752;49.560;8.708;2022-08-01T14:35:05;1.58;;;0.90;;
28551;SDS011;15752;49.560;8.708;2022-08-01T14:37:34;1.17;;;0.88;;
28551;SDS011;15752;49.560;8.708;2022-08-01T14:40:05;0.80;;;0.80;;
28551;SDS011;15752;49.560;8.708;2022-08-01T14:42:37;0.80;;;0.80;;
28551;SDS011;15752;49.560;8.708;2022-08-01T14:45:09;1.35;;;1.00;;
28551;SDS011;15752;49.560;8.708;2022-08-01T14:47:42;1.88;;;0.80;;
28551;SDS011;15752;49.560;8.708;2022-08-01T14:50:12;1.10;;;1.00;;
28551;SDS011;15752;49.560;8.708;2022-08-01T15:01:54;1.77;;;1.05;;
28551;SDS011;15752;49.560;8.708;2022-08-01T15:04:23;2.67;;;0.90;;
28551;SDS011;15752;49.560;8.708;2022-08-01T15:06:52;1.25;;;0.90;;
28551;SDS011;15752;49.560;8.708;2022-08-01T15:09:21;0.98;;;0.85;;
28551;SDS011;15752;49.560;8.708;2022-08-01T15:11:50;4.65;;;0.90;;
28551;SDS011;15752;49.560;8.708;2022-08-01T15:14:19;1.55;;;0.77;;
28551;SDS011;15752;49.560;8.708;2022-08-01T15:17:06;1.77;;;1.00;;
28551;SDS011;15752;49.560;8.708;2022-08-01T15:19:35;1.80;;;0.90;;
28551;SDS011;15752;49.560;8.708;2022-08-01T15:22:08;0.75;;;0.75;;
28551;SDS011;15752;49.560;8.708;2022-08-01T15:24:37;1.02;;;1.00;;
28551;SDS011;15752;49.560;8.708;2022-08-01T15:27:06;2.90;;;0.82;;
28551;SDS011;15752;49.560;8.708;2022-08-01T15:29:36;1.17;;;0.80;;
28551;SDS011;15752;49.560;8.708;2022-08-01T15:32:06;0.70;;;0.70;;
28551;SDS011;15752;49.560;8.708;2022-08-01T15:34:36;1.42;;;0.80;;
28551;SDS011;15752;49.560;8.708;2022-08-01T15:37:06;1.63;;;0.60;;
28551;SDS011;15752;49.560;8.708;2022-08-01T15:39:35;0.85;;;0.75;;